Terminal Aerodrome Forecast
Issued by NWS Paducah, KY

Home | Current Version | Previous Version | Text Only | Print | Product List | Glossary Off
Versions: 1 2 3 4 5 6 7 8 9 10 11 12 13

779
FTUS43 KPAH 250520
TAFPAH
TAF
KPAH 250520Z 2506/2606 26007KT P6SM SCT070
     FM251400 30009KT P6SM SCT025
     FM251800 27008G18KT P6SM SCT035
     FM260000 20004KT P6SM SKC=

USA.gov is the U.S. government's official web portal to all federal, state and local government web resources and services.